Syrene — 6YSB5 — position and weather

sailwx.info

Track history (hours):
 
Tides and Currents Weather Stations Pressure Air Temp Water Temp Dewpoint Dewpoint Depression Visibility Wind Speed Wind Dir Waves Ship Positions

Syrene

Last reported at 2017-Oct-10 21:46 UTC. Time now 2017-Oct-22 08:07 UTC.
Position N 26°07' W 079°43'.
Warning: this ship's position is 11 days out of date.

Length 29 m.

Type: Pleasure craft. MMSI: 339402000.

Date/timePositionNaut miles runAvg speedWind from/ knotsBaromVisibWave heightAir tempDewpointWater temp
2017-Oct-10 21:46N 26°07' W 079°43'2 8.8
2017-Oct-10 21:30N 26°07' W 079°46'5 8.6
2017-Oct-10 20:58N 26°06' W 079°51'4 8.9
2017-Oct-10 20:29N 26°06' W 079°56'4 9.1
2017-Oct-10 19:59N 26°06' W 080°01'4 7.7
2017-Oct-10 19:28N 26°06' W 080°05'2 3.6
2017-Oct-10 18:58N 26°07' W 080°07'2 3.0
2017-Oct-10 18:28N 26°07' W 080°09'3 0.1
2017-Oct-08 22:09N 26°05' W 080°11'0 0.0
2017-Oct-08 21:42N 26°05' W 080°11'0 0.0
2017-Oct-08 21:27N 26°05' W 080°11'0 0.0
2017-Oct-08 21:00N 26°05' W 080°11'0 0.0
2017-Oct-08 20:30N 26°05' W 080°11'0 0.0
2017-Oct-08 20:00N 26°05' W 080°11'0 0.0
2017-Oct-08 19:27N 26°05' W 080°11'0 0.0
2017-Oct-08 19:00N 26°05' W 080°11'0 0.0
2017-Oct-08 18:30N 26°05' W 080°11'0 0.0
2017-Oct-08 18:00N 26°05' W 080°11'0 0.0
2017-Oct-08 17:30N 26°05' W 080°11'0 0.0
2017-Oct-08 17:00N 26°05' W 080°11'0 0.0
2017-Oct-08 16:30N 26°05' W 080°11'0 0.0
2017-Oct-08 15:51N 26°05' W 080°11'0 0.0
2017-Oct-08 15:21N 26°05' W 080°11'0 0.0
2017-Oct-08 14:48N 26°05' W 080°11'0 0.0
2017-Oct-08 14:24N 26°05' W 080°11'0 0.0
2017-Oct-08 13:51N 26°05' W 080°11'0 0.0
2017-Oct-08 13:24N 26°05' W 080°11'0 0.0
2017-Oct-08 12:39N 26°05' W 080°11'0 0.0
2017-Oct-08 10:27N 26°05' W 080°11'0 0.0
2017-Oct-08 09:57N 26°05' W 080°11'0 0.0
2017-Oct-08 09:12N 26°05' W 080°11'0 0.0
2017-Oct-08 08:57N 26°05' W 080°11'0 0.0
2017-Oct-08 08:27N 26°05' W 080°11'0 0.0
2017-Oct-08 07:57N 26°05' W 080°11'0 0.0
2017-Oct-08 07:27N 26°05' W 080°11'0 0.0
2017-Oct-08 07:00N 26°05' W 080°11'0 0.0
2017-Oct-08 06:30N 26°05' W 080°11'0 0.0
2017-Oct-08 06:00N 26°05' W 080°11'0 0.0
2017-Oct-08 05:30N 26°05' W 080°11'0 0.0
2017-Oct-08 04:57N 26°05' W 080°11'0 0.0
2017-Oct-08 04:30N 26°05' W 080°11'0 0.0
2017-Oct-08 03:45N 26°05' W 080°11'0 0.1
2017-Oct-08 03:30N 26°05' W 080°11'0 0.0
2017-Oct-08 03:00N 26°05' W 080°11'0 0.0
2017-Oct-08 02:30N 26°05' W 080°11'0 0.0
2017-Oct-08 02:00N 26°05' W 080°11'0 0.0
2017-Oct-08 01:21N 26°05' W 080°11'0 0.0
2017-Oct-08 00:54N 26°05' W 080°11'0 0.0
2017-Oct-07 23:24N 26°05' W 080°11'1 1.0
2017-Oct-07 22:39N 26°06' W 080°11'1 2.5
2017-Oct-07 22:21N 26°05' W 080°11'0 0.0
2017-Oct-07 21:57N 26°05' W 080°11'0 0.0
2017-Oct-07 21:27N 26°05' W 080°11'0 0.0
2017-Oct-07 20:57N 26°05' W 080°11'0 0.0
2017-Oct-07 20:27N 26°05' W 080°11'0 0.0
2017-Oct-07 19:57N 26°05' W 080°11'0 0.0
2017-Oct-07 19:27N 26°05' W 080°11'0 0.0
2017-Oct-07 18:45N 26°05' W 080°11'0 0.0
2017-Oct-07 18:27N 26°05' W 080°11'0 0.0
2017-Oct-07 18:00N 26°05' W 080°11'0 0.0
2017-Oct-07 17:30N 26°05' W 080°11'0 0.0
2017-Oct-07 17:00N 26°05' W 080°11'0 0.0
2017-Oct-07 16:27N 26°05' W 080°11'0 0.2
2017-Oct-07 16:01N 26°05' W 080°11'0 0.2
2017-Oct-07 15:29N 26°05' W 080°11'0 0.2
2017-Oct-07 14:56N 26°05' W 080°11'0 0.0
2017-Oct-07 14:23N 26°05' W 080°11'0 0.0
2017-Oct-07 13:56N 26°05' W 080°11'0 0.0
2017-Oct-07 13:23N 26°05' W 080°11'0 0.0
2017-Oct-07 12:59N 26°05' W 080°11'0 0.0
2017-Oct-07 12:29N 26°05' W 080°11'0 0.0
2017-Oct-07 11:59N 26°05' W 080°11'0 0.0
2017-Oct-07 11:29N 26°05' W 080°11'0 0.0
2017-Oct-07 10:56N 26°05' W 080°11'0 0.0
2017-Oct-07 10:26N 26°05' W 080°11'0 0.0
2017-Oct-07 09:59N 26°05' W 080°11'0 0.0
2017-Oct-07 09:17N 26°05' W 080°11'0 0.0
2017-Oct-07 08:59N 26°05' W 080°11'0 0.0
2017-Oct-07 08:17N 26°05' W 080°11'0 0.0
2017-Oct-07 07:50N 26°05' W 080°11'0 0.0
2017-Oct-07 07:20N 26°05' W 080°11'0 0.0
2017-Oct-07 06:59N 26°05' W 080°11'0 0.0
2017-Oct-07 06:20N 26°05' W 080°11'0 0.0
2017-Oct-07 05:50N 26°05' W 080°11'0 0.0
2017-Oct-07 05:20N 26°05' W 080°11'0 0.0
2017-Oct-07 04:53N 26°05' W 080°11'0 0.0
2017-Oct-07 04:23N 26°05' W 080°11'0 0.0
2017-Oct-07 03:50N 26°05' W 080°11'0 0.0
2017-Oct-07 03:20N 26°05' W 080°11'0 0.0
2017-Oct-07 02:53N 26°05' W 080°11'0 0.0
2017-Oct-07 02:26N 26°05' W 080°11'0 0.0
2017-Oct-07 01:56N 26°05' W 080°11'0 0.0
2017-Oct-07 01:26N 26°05' W 080°11'0 0.0
2017-Oct-07 00:56N 26°05' W 080°11'0 0.0
2017-Oct-07 00:26N 26°05' W 080°11'0 0.0
2017-Oct-06 23:53N 26°05' W 080°11'0 0.0
2017-Oct-06 23:29N 26°05' W 080°11'0 0.0
2017-Oct-06 22:59N 26°05' W 080°11'0 0.0
2017-Oct-06 22:29N 26°05' W 080°11'0 0.0
2017-Oct-06 21:59N 26°05' W 080°11'0 0.0
2017-Oct-06 21:14N 26°05' W 080°11'0 0.0
2017-Oct-06 20:59N 26°05' W 080°11'0 0.0
2017-Oct-06 20:26N 26°05' W 080°11'0 0.0
2017-Oct-06 19:56N 26°05' W 080°11'0 0.0
2017-Oct-06 19:29N 26°05' W 080°11'0 0.0
2017-Oct-06 18:59N 26°05' W 080°11'0 0.0
2017-Oct-06 18:29N 26°05' W 080°11'0 0.0
2017-Oct-06 17:47N 26°05' W 080°11'0 0.0
2017-Oct-06 17:29N 26°05' W 080°11'0 0.0
2017-Oct-06 16:50N 26°05' W 080°11'0 0.0
2017-Oct-06 16:17N 26°05' W 080°11'0 0.0
2017-Oct-06 15:50N 26°05' W 080°11'0 0.0
2017-Oct-06 15:17N 26°05' W 080°11'0 0.0
2017-Oct-06 14:54N 26°05' W 080°11'0 0.0
2017-Oct-06 14:30N 26°05' W 080°11'0 0.0
2017-Oct-06 13:30N 26°05' W 080°11'0 0.0
2017-Oct-06 13:00N 26°05' W 080°11'0 0.0
2017-Oct-06 12:30N 26°05' W 080°11'0 0.0
2017-Oct-06 11:57N 26°05' W 080°11'0 0.0
2017-Oct-06 11:30N 26°05' W 080°11'0 0.0
2017-Oct-06 11:00N 26°05' W 080°11'0 0.0
2017-Oct-06 10:30N 26°05' W 080°11'0 0.0
2017-Oct-06 10:00N 26°05' W 080°11'0 0.0
2017-Oct-06 09:30N 26°05' W 080°11'0 0.0
2017-Oct-06 09:00N 26°05' W 080°11'0 0.0
2017-Oct-06 08:18N 26°05' W 080°11'0 0.0
2017-Oct-06 07:51N 26°05' W 080°11'0 0.0
2017-Oct-06 07:21N 26°05' W 080°11'0 0.0
2017-Oct-06 06:54N 26°05' W 080°11'0 0.0
2017-Oct-06 06:18N 26°05' W 080°11'0 0.0
2017-Oct-06 05:54N 26°05' W 080°11'0 0.0
2017-Oct-06 05:24N 26°05' W 080°11'0 0.0
2017-Oct-06 04:54N 26°05' W 080°11'0 0.0
2017-Oct-06 04:24N 26°05' W 080°11'0 0.0
2017-Oct-06 03:57N 26°05' W 080°11'0 0.0
2017-Oct-06 03:27N 26°05' W 080°11'0 0.0
2017-Oct-06 03:00N 26°05' W 080°11'0 0.0
2017-Oct-06 02:30N 26°05' W 080°11'0 0.0
2017-Oct-06 01:03N 26°05' W 080°11'0 0.0
2017-Oct-06 00:54N 26°05' W 080°11'0 0.0
2017-Oct-06 00:21N 26°05' W 080°11'0 0.0
2017-Oct-05 23:54N 26°05' W 080°11'0 0.0
2017-Oct-05 23:24N 26°05' W 080°11'0 0.0
2017-Oct-05 22:51N 26°05' W 080°11'0 0.0
2017-Oct-05 22:24N 26°05' W 080°11'0 0.0
2017-Oct-05 21:54N 26°05' W 080°11'0 0.0
2017-Oct-05 21:24N 26°05' W 080°11'0 0.0
2017-Oct-05 20:57N 26°05' W 080°11'0 0.0
2017-Oct-05 20:27N 26°05' W 080°11'0 0.0
2017-Oct-05 19:57N 26°05' W 080°11'0 0.0
2017-Oct-05 19:27N 26°05' W 080°11'0 0.0
2017-Oct-05 18:57N 26°05' W 080°11'0 0.0
2017-Oct-05 18:30N 26°05' W 080°11'0 0.0
2017-Oct-05 17:54N 26°05' W 080°11'0 0.0
2017-Oct-05 15:27N 26°05' W 080°11'0 0.0
2017-Oct-05 14:48N 26°05' W 080°11'0 0.0
2017-Oct-05 14:15N 26°05' W 080°11'0 0.0
2017-Oct-05 13:48N 26°05' W 080°11'0 0.0
2017-Oct-05 11:18N 26°05' W 080°11'0 0.0
2017-Oct-05 10:51N 26°05' W 080°11'0 0.0
2017-Oct-05 10:24N 26°05' W 080°11'0 0.0
2017-Oct-05 09:54N 26°05' W 080°11'0 0.0
2017-Oct-05 09:24N 26°05' W 080°11'0 0.0
2017-Oct-05 08:39N 26°05' W 080°11'0 0.0
2017-Oct-05 08:06N 26°05' W 080°11'0 0.0
2017-Oct-05 07:54N 26°05' W 080°11'0 0.0
2017-Oct-05 07:24N 26°05' W 080°11'0 0.0
2017-Oct-05 06:57N 26°05' W 080°11'0 0.0
2017-Oct-05 06:27N 26°05' W 080°11'0 0.0
2017-Oct-05 05:57N 26°05' W 080°11'0 0.0
2017-Oct-05 05:27N 26°05' W 080°11'0 0.0
2017-Oct-05 05:00N 26°05' W 080°11'0 0.0
2017-Oct-05 04:30N 26°05' W 080°11'0 0.0
2017-Oct-05 03:57N 26°05' W 080°11'0 0.0
2017-Oct-05 03:27N 26°05' W 080°11'0 0.0
2017-Oct-05 02:03N 26°05' W 080°11'0 0.0
2017-Oct-05 01:45N 26°05' W 080°11'0 0.0
2017-Oct-05 00:33N 26°05' W 080°11'0 0.0
2017-Oct-05 00:03N 26°05' W 080°11'0 0.1
2017-Oct-05 00:00N 26°05' W 080°11'0 0.0
2017-Oct-04 23:30N 26°05' W 080°11'0 0.0
2017-Oct-04 23:00N 26°05' W 080°11'0 0.0
2017-Oct-04 21:36N 26°05' W 080°11'0 0.1
2017-Oct-04 21:21N 26°05' W 080°11'0 0.0
2017-Oct-04 20:51N 26°05' W 080°11'0 0.0
2017-Oct-04 19:36N 26°05' W 080°11'0 0.0
2017-Oct-04 19:09N 26°05' W 080°11'0 0.0
2017-Oct-04 18:54N 26°05' W 080°11'0 0.0
2017-Oct-04 18:24N 26°05' W 080°11'0 0.0
2017-Oct-04 17:51N 26°05' W 080°11'0 0.0
2017-Oct-04 17:27N 26°05' W 080°11'0 0.0
2017-Oct-04 16:57N 26°05' W 080°11'0 0.0
2017-Oct-04 16:27N 26°05' W 080°11'0 0.0
2017-Oct-04 15:57N 26°05' W 080°11'0 0.0
2017-Oct-04 14:54N 26°05' W 080°11'0 0.0
2017-Oct-04 14:27N 26°05' W 080°11'0 0.0
2017-Oct-04 13:27N 26°05' W 080°11'0 0.0
2017-Oct-04 12:57N 26°05' W 080°11'0 0.0
2017-Oct-04 12:12N 26°05' W 080°11'0 0.0
2017-Oct-04 11:57N 26°05' W 080°11'0 0.0
2017-Oct-04 11:27N 26°05' W 080°11'0 0.0
2017-Oct-04 11:00N 26°05' W 080°11'0 0.0
2017-Oct-04 10:30N 26°05' W 080°11'0 0.0
2017-Oct-04 10:00N 26°05' W 080°11'0 0.0
2017-Oct-04 09:30N 26°05' W 080°11'0 0.0
2017-Oct-04 09:00N 26°05' W 080°11'0 0.0
2017-Oct-04 08:30N 26°05' W 080°11'0 0.0
2017-Oct-04 07:48N 26°05' W 080°11'0 0.0
2017-Oct-04 06:39N 26°05' W 080°11'0 0.0
2017-Oct-04 06:21N 26°05' W 080°11'0 0.0
2017-Oct-03 22:00N 26°05' W 080°11'0 0.0
2017-Oct-03 21:03N 26°05' W 080°11'0 0.2
2017-Oct-03 21:00N 26°05' W 080°11'0 0.0
2017-Oct-03 20:18N 26°05' W 080°11'0 0.0
2017-Oct-03 19:51N 26°05' W 080°11'0 0.0
2017-Oct-03 19:30N 26°05' W 080°11'0 0.0
2017-Oct-03 18:51N 26°05' W 080°11'0 0.0
2017-Oct-03 18:21N 26°05' W 080°11'0 0.0
2017-Oct-03 17:51N 26°05' W 080°11'0 0.0
2017-Oct-03 17:21N 26°05' W 080°11'0 0.0
2017-Oct-03 16:48N 26°05' W 080°11'0 0.0
2017-Oct-03 16:24N 26°05' W 080°11'0 0.0
2017-Oct-03 15:48N 26°05' W 080°11'0 0.0
2017-Oct-03 15:21N 26°05' W 080°11'0 0.0
2017-Oct-03 14:51N 26°05' W 080°11'0 0.0
2017-Oct-03 13:57N 26°05' W 080°11'0 0.0
2017-Oct-03 13:27N 26°05' W 080°11'0 0.0
2017-Oct-03 11:27N 26°05' W 080°11'0 0.0
2017-Oct-03 10:45N 26°05' W 080°11'0 0.0
2017-Oct-03 10:15N 26°05' W 080°11'0 0.0
2017-Oct-03 09:45N 26°05' W 080°11'0 0.0
2017-Oct-03 09:27N 26°05' W 080°11'0 0.0
2017-Oct-03 09:00N 26°05' W 080°11'0 0.0
2017-Oct-03 08:30N 26°05' W 080°11'0 0.0
2017-Oct-03 07:45N 26°05' W 080°11'0 0.0
2017-Oct-03 07:27N 26°05' W 080°11'0 0.0
2017-Oct-03 07:00N 26°05' W 080°11'0 0.0
2017-Oct-03 06:30N 26°05' W 080°11'0 0.0
2017-Oct-03 06:00N 26°05' W 080°11'0 0.0
2017-Oct-03 05:30N 26°05' W 080°11'0 0.0
2017-Oct-03 05:00N 26°05' W 080°11'0 0.0
2017-Oct-03 04:15N 26°05' W 080°11'0 0.0
2017-Oct-03 03:51N 26°05' W 080°11'0 0.0
2017-Oct-03 03:03N 26°05' W 080°11'0 0.1
2017-Oct-03 02:54N 26°05' W 080°11'0 0.0
2017-Oct-03 02:21N 26°05' W 080°11'0 0.0
2017-Oct-03 01:48N 26°05' W 080°11'0 0.0
2017-Oct-03 01:24N 26°05' W 080°11'0 0.0
2017-Oct-03 00:54N 26°05' W 080°11'0 0.0
2017-Oct-03 00:24N 26°05' W 080°11'0 0.0
2017-Oct-02 23:57N 26°05' W 080°11'0 0.0
2017-Oct-02 23:27N 26°05' W 080°11'0 0.0
2017-Oct-02 22:57N 26°05' W 080°11'0 0.0
2017-Oct-02 22:27N 26°05' W 080°11'0 0.0
2017-Oct-02 21:54N 26°05' W 080°11'0 0.0
2017-Oct-02 21:27N 26°05' W 080°11'0 0.0
2017-Oct-02 21:00N 26°05' W 080°11'0 0.0
2017-Oct-02 20:30N 26°05' W 080°11'0 0.0
2017-Oct-02 19:57N 26°05' W 080°11'0 0.0
2017-Oct-02 18:57N 26°05' W 080°11'0 0.0
2017-Oct-02 18:03N 26°05' W 080°11'0 0.0
2017-Oct-02 17:57N 26°05' W 080°11'0 0.0
2017-Oct-02 17:15N 26°05' W 080°11'0 0.0
2017-Oct-02 16:48N 26°05' W 080°11'0 0.0
2017-Oct-02 16:30N 26°05' W 080°11'0 0.0
2017-Oct-02 16:00N 26°05' W 080°11'0 0.0
2017-Oct-02 15:30N 26°05' W 080°11'0 0.0
2017-Oct-02 14:51N 26°05' W 080°11'0 0.0
2017-Oct-02 14:21N 26°05' W 080°11'0 0.0
2017-Oct-02 13:18N 26°05' W 080°11'0 0.0
2017-Oct-02 12:09N 26°05' W 080°11'0 0.0
2017-Oct-02 11:54N 26°05' W 080°11'0 0.0
2017-Oct-02 11:24N 26°05' W 080°11'0 0.0
2017-Oct-02 10:54N 26°05' W 080°11'0 0.0
2017-Oct-02 10:24N 26°05' W 080°11'0 0.0
2017-Oct-02 09:57N 26°05' W 080°11'0 0.0
2017-Oct-02 08:54N 26°05' W 080°11'0 0.0
2017-Oct-02 08:12N 26°05' W 080°11'0 0.0
2017-Oct-02 07:57N 26°05' W 080°11'0 0.0
2017-Oct-02 07:27N 26°05' W 080°11'0 0.0
2017-Oct-02 07:00N 26°05' W 080°11'0 0.0
2017-Oct-02 06:30N 26°05' W 080°11'0 0.0
2017-Oct-02 06:00N 26°05' W 080°11'0 0.0
2017-Oct-02 05:27N 26°05' W 080°11'0 0.0
2017-Oct-02 05:00N 26°05' W 080°11'0 0.0
2017-Oct-02 04:30N 26°05' W 080°11'0 0.0
2017-Oct-02 03:57N 26°05' W 080°11'0 0.0
2017-Oct-02 03:30N 26°05' W 080°11'0 0.0
2017-Oct-02 02:48N 26°05' W 080°11'0 0.0
2017-Oct-02 02:30N 26°05' W 080°11'0 0.0
2017-Oct-02 02:00N 26°05' W 080°11'0 0.0
2017-Oct-02 01:30N 26°05' W 080°11'0 0.0
2017-Oct-02 01:00N 26°05' W 080°11'0 0.0
2017-Oct-02 00:30N 26°05' W 080°11'0 0.0
2017-Oct-01 23:51N 26°05' W 080°11'0 0.0
2017-Oct-01 23:21N 26°05' W 080°11'0 0.0
2017-Oct-01 22:54N 26°05' W 080°11'0 0.0
2017-Oct-01 22:24N 26°05' W 080°11'0 0.0
2017-Oct-01 21:54N 26°05' W 080°11'0 0.0
2017-Oct-01 21:24N 26°05' W 080°11'0 0.0
2017-Oct-01 20:51N 26°05' W 080°11'0 0.0
2017-Oct-01 20:24N 26°05' W 080°11'0 0.0
2017-Oct-01 19:57N 26°05' W 080°11'0 0.0
2017-Oct-01 19:27N 26°05' W 080°11'0 0.0
2017-Oct-01 18:57N 26°05' W 080°11'0 0.0
2017-Oct-01 18:24N 26°05' W 080°11'0 0.0
2017-Oct-01 17:57N 26°05' W 080°11'0 0.0
2017-Oct-01 17:27N 26°05' W 080°11'0 0.1
2017-Oct-01 16:54N 26°05' W 080°11'0 0.1
2017-Oct-01 16:30N 26°05' W 080°11'0 0.0
2017-Oct-01 16:00N 26°05' W 080°11'0 0.0
2017-Oct-01 15:30N 26°05' W 080°11'0 0.0
2017-Oct-01 15:00N 26°05' W 080°11'0 0.0
2017-Oct-01 14:30N 26°05' W 080°11'0 0.0
2017-Oct-01 14:00N 26°05' W 080°11'0 0.0
2017-Oct-01 13:30N 26°05' W 080°11'0 0.0
2017-Oct-01 13:00N 26°05' W 080°11'0 0.0
2017-Oct-01 12:30N 26°05' W 080°11'0 0.0
2017-Oct-01 12:00N 26°05' W 080°11'0 0.0
2017-Oct-01 11:30N 26°05' W 080°11'0 0.0
2017-Oct-01 11:00N 26°05' W 080°11'0 0.0
2017-Oct-01 10:21N 26°05' W 080°11'0 0.0
2017-Oct-01 09:48N 26°05' W 080°11'0 0.0
2017-Oct-01 09:21N 26°05' W 080°11'0 0.0
2017-Oct-01 08:54N 26°05' W 080°11'0 0.0
2017-Oct-01 08:24N 26°05' W 080°11'0 0.0
2017-Oct-01 07:54N 26°05' W 080°11'0 0.0
2017-Oct-01 07:24N 26°05' W 080°11'0 0.0
2017-Oct-01 06:54N 26°05' W 080°11'0 0.0
2017-Oct-01 06:27N 26°05' W 080°11'0 0.0
2017-Oct-01 05:54N 26°05' W 080°11'0 0.0
2017-Oct-01 05:21N 26°05' W 080°11'0 0.0
2017-Oct-01 04:39N 26°05' W 080°11'0 0.1
2017-Oct-01 04:27N 26°05' W 080°11'0 0.0
2017-Oct-01 03:57N 26°05' W 080°11'0 0.0
2017-Oct-01 03:30N 26°05' W 080°11'0 0.0
2017-Oct-01 03:00N 26°05' W 080°11'  
Track history (hours):
 
Tides and Currents Weather Stations Pressure Air Temp Water Temp Dewpoint Dewpoint Depression Visibility Wind Speed Wind Dir Waves Ship Positions

Syrene

Last reported at 2017-Oct-10 21:46 UTC. Time now 2017-Oct-22 08:07 UTC.
Position N 26°07' W 079°43'.
Warning: this ship's position is 11 days out of date.

Length 29 m.

Type: Pleasure craft. MMSI: 339402000.

Date/timePositionNaut miles runAvg speedWind from/ knotsBaromVisibWave heightAir tempDewpointWater temp
2017-Oct-10 21:46N 26°07' W 079°43'2 8.8
2017-Oct-10 21:30N 26°07' W 079°46'5 8.6
2017-Oct-10 20:58N 26°06' W 079°51'4 8.9
2017-Oct-10 20:29N 26°06' W 079°56'4 9.1
2017-Oct-10 19:59N 26°06' W 080°01'4 7.7
2017-Oct-10 19:28N 26°06' W 080°05'2 3.6
2017-Oct-10 18:58N 26°07' W 080°07'2 3.0
2017-Oct-10 18:28N 26°07' W 080°09'3 0.1
2017-Oct-08 22:09N 26°05' W 080°11'0 0.0
2017-Oct-08 21:42N 26°05' W 080°11'0 0.0
2017-Oct-08 21:27N 26°05' W 080°11'0 0.0
2017-Oct-08 21:00N 26°05' W 080°11'0 0.0
2017-Oct-08 20:30N 26°05' W 080°11'0 0.0
2017-Oct-08 20:00N 26°05' W 080°11'0 0.0
2017-Oct-08 19:27N 26°05' W 080°11'0 0.0
2017-Oct-08 19:00N 26°05' W 080°11'0 0.0
2017-Oct-08 18:30N 26°05' W 080°11'0 0.0
2017-Oct-08 18:00N 26°05' W 080°11'0 0.0
2017-Oct-08 17:30N 26°05' W 080°11'0 0.0
2017-Oct-08 17:00N 26°05' W 080°11'0 0.0
2017-Oct-08 16:30N 26°05' W 080°11'0 0.0
2017-Oct-08 15:51N 26°05' W 080°11'0 0.0
2017-Oct-08 15:21N 26°05' W 080°11'0 0.0
2017-Oct-08 14:48N 26°05' W 080°11'0 0.0
2017-Oct-08 14:24N 26°05' W 080°11'0 0.0
2017-Oct-08 13:51N 26°05' W 080°11'0 0.0
2017-Oct-08 13:24N 26°05' W 080°11'0 0.0
2017-Oct-08 12:39N 26°05' W 080°11'0 0.0
2017-Oct-08 10:27N 26°05' W 080°11'0 0.0
2017-Oct-08 09:57N 26°05' W 080°11'0 0.0
2017-Oct-08 09:12N 26°05' W 080°11'0 0.0
2017-Oct-08 08:57N 26°05' W 080°11'0 0.0
2017-Oct-08 08:27N 26°05' W 080°11'0 0.0
2017-Oct-08 07:57N 26°05' W 080°11'0 0.0
2017-Oct-08 07:27N 26°05' W 080°11'0 0.0
2017-Oct-08 07:00N 26°05' W 080°11'0 0.0
2017-Oct-08 06:30N 26°05' W 080°11'0 0.0
2017-Oct-08 06:00N 26°05' W 080°11'0 0.0
2017-Oct-08 05:30N 26°05' W 080°11'0 0.0
2017-Oct-08 04:57N 26°05' W 080°11'0 0.0
2017-Oct-08 04:30N 26°05' W 080°11'0 0.0
2017-Oct-08 03:45N 26°05' W 080°11'0 0.1
2017-Oct-08 03:30N 26°05' W 080°11'0 0.0
2017-Oct-08 03:00N 26°05' W 080°11'0 0.0
2017-Oct-08 02:30N 26°05' W 080°11'0 0.0
2017-Oct-08 02:00N 26°05' W 080°11'0 0.0
2017-Oct-08 01:21N 26°05' W 080°11'0 0.0
2017-Oct-08 00:54N 26°05' W 080°11'0 0.0
2017-Oct-07 23:24N 26°05' W 080°11'1 1.0
2017-Oct-07 22:39N 26°06' W 080°11'1 2.5
2017-Oct-07 22:21N 26°05' W 080°11'0 0.0
2017-Oct-07 21:57N 26°05' W 080°11'0 0.0
2017-Oct-07 21:27N 26°05' W 080°11'0 0.0
2017-Oct-07 20:57N 26°05' W 080°11'0 0.0
2017-Oct-07 20:27N 26°05' W 080°11'0 0.0
2017-Oct-07 19:57N 26°05' W 080°11'0 0.0
2017-Oct-07 19:27N 26°05' W 080°11'0 0.0
2017-Oct-07 18:45N 26°05' W 080°11'0 0.0
2017-Oct-07 18:27N 26°05' W 080°11'0 0.0
2017-Oct-07 18:00N 26°05' W 080°11'0 0.0
2017-Oct-07 17:30N 26°05' W 080°11'0 0.0
2017-Oct-07 17:00N 26°05' W 080°11'0 0.0
2017-Oct-07 16:27N 26°05' W 080°11'0 0.2
2017-Oct-07 16:01N 26°05' W 080°11'0 0.2
2017-Oct-07 15:29N 26°05' W 080°11'0 0.2
2017-Oct-07 14:56N 26°05' W 080°11'0 0.0
2017-Oct-07 14:23N 26°05' W 080°11'0 0.0
2017-Oct-07 13:56N 26°05' W 080°11'0 0.0
2017-Oct-07 13:23N 26°05' W 080°11'0 0.0
2017-Oct-07 12:59N 26°05' W 080°11'0 0.0
2017-Oct-07 12:29N 26°05' W 080°11'0 0.0
2017-Oct-07 11:59N 26°05' W 080°11'0 0.0
2017-Oct-07 11:29N 26°05' W 080°11'0 0.0
2017-Oct-07 10:56N 26°05' W 080°11'0 0.0
2017-Oct-07 10:26N 26°05' W 080°11'0 0.0
2017-Oct-07 09:59N 26°05' W 080°11'0 0.0
2017-Oct-07 09:17N 26°05' W 080°11'0 0.0
2017-Oct-07 08:59N 26°05' W 080°11'0 0.0
2017-Oct-07 08:17N 26°05' W 080°11'0 0.0
2017-Oct-07 07:50N 26°05' W 080°11'0 0.0
2017-Oct-07 07:20N 26°05' W 080°11'0 0.0
2017-Oct-07 06:59N 26°05' W 080°11'0 0.0
2017-Oct-07 06:20N 26°05' W 080°11'0 0.0
2017-Oct-07 05:50N 26°05' W 080°11'0 0.0
2017-Oct-07 05:20N 26°05' W 080°11'0 0.0
2017-Oct-07 04:53N 26°05' W 080°11'0 0.0
2017-Oct-07 04:23N 26°05' W 080°11'0 0.0
2017-Oct-07 03:50N 26°05' W 080°11'0 0.0
2017-Oct-07 03:20N 26°05' W 080°11'0 0.0
2017-Oct-07 02:53N 26°05' W 080°11'0 0.0
2017-Oct-07 02:26N 26°05' W 080°11'0 0.0
2017-Oct-07 01:56N 26°05' W 080°11'0 0.0
2017-Oct-07 01:26N 26°05' W 080°11'0 0.0
2017-Oct-07 00:56N 26°05' W 080°11'0 0.0
2017-Oct-07 00:26N 26°05' W 080°11'0 0.0
2017-Oct-06 23:53N 26°05' W 080°11'0 0.0
2017-Oct-06 23:29N 26°05' W 080°11'0 0.0
2017-Oct-06 22:59N 26°05' W 080°11'0 0.0
2017-Oct-06 22:29N 26°05' W 080°11'0 0.0
2017-Oct-06 21:59N 26°05' W 080°11'0 0.0
2017-Oct-06 21:14N 26°05' W 080°11'0 0.0
2017-Oct-06 20:59N 26°05' W 080°11'0 0.0
2017-Oct-06 20:26N 26°05' W 080°11'0 0.0
2017-Oct-06 19:56N 26°05' W 080°11'0 0.0
2017-Oct-06 19:29N 26°05' W 080°11'0 0.0
2017-Oct-06 18:59N 26°05' W 080°11'0 0.0
2017-Oct-06 18:29N 26°05' W 080°11'0 0.0
2017-Oct-06 17:47N 26°05' W 080°11'0 0.0
2017-Oct-06 17:29N 26°05' W 080°11'0 0.0
2017-Oct-06 16:50N 26°05' W 080°11'0 0.0
2017-Oct-06 16:17N 26°05' W 080°11'0 0.0
2017-Oct-06 15:50N 26°05' W 080°11'0 0.0
2017-Oct-06 15:17N 26°05' W 080°11'0 0.0
2017-Oct-06 14:54N 26°05' W 080°11'0 0.0
2017-Oct-06 14:30N 26°05' W 080°11'0 0.0
2017-Oct-06 13:30N 26°05' W 080°11'0 0.0
2017-Oct-06 13:00N 26°05' W 080°11'0 0.0
2017-Oct-06 12:30N 26°05' W 080°11'0 0.0
2017-Oct-06 11:57N 26°05' W 080°11'0 0.0
2017-Oct-06 11:30N 26°05' W 080°11'0 0.0
2017-Oct-06 11:00N 26°05' W 080°11'0 0.0
2017-Oct-06 10:30N 26°05' W 080°11'0 0.0
2017-Oct-06 10:00N 26°05' W 080°11'0 0.0
2017-Oct-06 09:30N 26°05' W 080°11'0 0.0
2017-Oct-06 09:00N 26°05' W 080°11'0 0.0
2017-Oct-06 08:18N 26°05' W 080°11'0 0.0
2017-Oct-06 07:51N 26°05' W 080°11'0 0.0
2017-Oct-06 07:21N 26°05' W 080°11'0 0.0
2017-Oct-06 06:54N 26°05' W 080°11'0 0.0
2017-Oct-06 06:18N 26°05' W 080°11'0 0.0
2017-Oct-06 05:54N 26°05' W 080°11'0 0.0
2017-Oct-06 05:24N 26°05' W 080°11'0 0.0
2017-Oct-06 04:54N 26°05' W 080°11'0 0.0
2017-Oct-06 04:24N 26°05' W 080°11'0 0.0
2017-Oct-06 03:57N 26°05' W 080°11'0 0.0
2017-Oct-06 03:27N 26°05' W 080°11'0 0.0
2017-Oct-06 03:00N 26°05' W 080°11'0 0.0
2017-Oct-06 02:30N 26°05' W 080°11'0 0.0
2017-Oct-06 01:03N 26°05' W 080°11'0 0.0
2017-Oct-06 00:54N 26°05' W 080°11'0 0.0
2017-Oct-06 00:21N 26°05' W 080°11'0 0.0
2017-Oct-05 23:54N 26°05' W 080°11'0 0.0
2017-Oct-05 23:24N 26°05' W 080°11'0 0.0
2017-Oct-05 22:51N 26°05' W 080°11'0 0.0
2017-Oct-05 22:24N 26°05' W 080°11'0 0.0
2017-Oct-05 21:54N 26°05' W 080°11'0 0.0
2017-Oct-05 21:24N 26°05' W 080°11'0 0.0
2017-Oct-05 20:57N 26°05' W 080°11'0 0.0
2017-Oct-05 20:27N 26°05' W 080°11'0 0.0
2017-Oct-05 19:57N 26°05' W 080°11'0 0.0
2017-Oct-05 19:27N 26°05' W 080°11'0 0.0
2017-Oct-05 18:57N 26°05' W 080°11'0 0.0
2017-Oct-05 18:30N 26°05' W 080°11'0 0.0
2017-Oct-05 17:54N 26°05' W 080°11'0 0.0
2017-Oct-05 15:27N 26°05' W 080°11'0 0.0
2017-Oct-05 14:48N 26°05' W 080°11'0 0.0
2017-Oct-05 14:15N 26°05' W 080°11'0 0.0
2017-Oct-05 13:48N 26°05' W 080°11'0 0.0
2017-Oct-05 11:18N 26°05' W 080°11'0 0.0
2017-Oct-05 10:51N 26°05' W 080°11'0 0.0
2017-Oct-05 10:24N 26°05' W 080°11'0 0.0
2017-Oct-05 09:54N 26°05' W 080°11'0 0.0
2017-Oct-05 09:24N 26°05' W 080°11'0 0.0
2017-Oct-05 08:39N 26°05' W 080°11'0 0.0
2017-Oct-05 08:06N 26°05' W 080°11'0 0.0
2017-Oct-05 07:54N 26°05' W 080°11'0 0.0
2017-Oct-05 07:24N 26°05' W 080°11'0 0.0
2017-Oct-05 06:57N 26°05' W 080°11'0 0.0
2017-Oct-05 06:27N 26°05' W 080°11'0 0.0
2017-Oct-05 05:57N 26°05' W 080°11'0 0.0
2017-Oct-05 05:27N 26°05' W 080°11'0 0.0
2017-Oct-05 05:00N 26°05' W 080°11'0 0.0
2017-Oct-05 04:30N 26°05' W 080°11'0 0.0
2017-Oct-05 03:57N 26°05' W 080°11'0 0.0
2017-Oct-05 03:27N 26°05' W 080°11'0 0.0
2017-Oct-05 02:03N 26°05' W 080°11'0 0.0
2017-Oct-05 01:45N 26°05' W 080°11'0 0.0
2017-Oct-05 00:33N 26°05' W 080°11'0 0.0
2017-Oct-05 00:03N 26°05' W 080°11'0 0.1
2017-Oct-05 00:00N 26°05' W 080°11'0 0.0
2017-Oct-04 23:30N 26°05' W 080°11'0 0.0
2017-Oct-04 23:00N 26°05' W 080°11'0 0.0
2017-Oct-04 21:36N 26°05' W 080°11'0 0.1
2017-Oct-04 21:21N 26°05' W 080°11'0 0.0
2017-Oct-04 20:51N 26°05' W 080°11'0 0.0
2017-Oct-04 19:36N 26°05' W 080°11'0 0.0
2017-Oct-04 19:09N 26°05' W 080°11'0 0.0
2017-Oct-04 18:54N 26°05' W 080°11'0 0.0
2017-Oct-04 18:24N 26°05' W 080°11'0 0.0
2017-Oct-04 17:51N 26°05' W 080°11'0 0.0
2017-Oct-04 17:27N 26°05' W 080°11'0 0.0
2017-Oct-04 16:57N 26°05' W 080°11'0 0.0
2017-Oct-04 16:27N 26°05' W 080°11'0 0.0
2017-Oct-04 15:57N 26°05' W 080°11'0 0.0
2017-Oct-04 14:54N 26°05' W 080°11'0 0.0
2017-Oct-04 14:27N 26°05' W 080°11'0 0.0
2017-Oct-04 13:27N 26°05' W 080°11'0 0.0
2017-Oct-04 12:57N 26°05' W 080°11'0 0.0
2017-Oct-04 12:12N 26°05' W 080°11'0 0.0
2017-Oct-04 11:57N 26°05' W 080°11'0 0.0
2017-Oct-04 11:27N 26°05' W 080°11'0 0.0
2017-Oct-04 11:00N 26°05' W 080°11'0 0.0
2017-Oct-04 10:30N 26°05' W 080°11'0 0.0
2017-Oct-04 10:00N 26°05' W 080°11'0 0.0
2017-Oct-04 09:30N 26°05' W 080°11'0 0.0
2017-Oct-04 09:00N 26°05' W 080°11'0 0.0
2017-Oct-04 08:30N 26°05' W 080°11'0 0.0
2017-Oct-04 07:48N 26°05' W 080°11'0 0.0
2017-Oct-04 06:39N 26°05' W 080°11'0 0.0
2017-Oct-04 06:21N 26°05' W 080°11'0 0.0
2017-Oct-03 22:00N 26°05' W 080°11'0 0.0
2017-Oct-03 21:03N 26°05' W 080°11'0 0.2
2017-Oct-03 21:00N 26°05' W 080°11'0 0.0
2017-Oct-03 20:18N 26°05' W 080°11'0 0.0
2017-Oct-03 19:51N 26°05' W 080°11'0 0.0
2017-Oct-03 19:30N 26°05' W 080°11'0 0.0
2017-Oct-03 18:51N 26°05' W 080°11'0 0.0
2017-Oct-03 18:21N 26°05' W 080°11'0 0.0
2017-Oct-03 17:51N 26°05' W 080°11'0 0.0
2017-Oct-03 17:21N 26°05' W 080°11'0 0.0
2017-Oct-03 16:48N 26°05' W 080°11'0 0.0
2017-Oct-03 16:24N 26°05' W 080°11'0 0.0
2017-Oct-03 15:48N 26°05' W 080°11'0 0.0
2017-Oct-03 15:21N 26°05' W 080°11'0 0.0
2017-Oct-03 14:51N 26°05' W 080°11'0 0.0
2017-Oct-03 13:57N 26°05' W 080°11'0 0.0
2017-Oct-03 13:27N 26°05' W 080°11'0 0.0
2017-Oct-03 11:27N 26°05' W 080°11'0 0.0
2017-Oct-03 10:45N 26°05' W 080°11'0 0.0
2017-Oct-03 10:15N 26°05' W 080°11'0 0.0
2017-Oct-03 09:45N 26°05' W 080°11'0 0.0
2017-Oct-03 09:27N 26°05' W 080°11'0 0.0
2017-Oct-03 09:00N 26°05' W 080°11'0 0.0
2017-Oct-03 08:30N 26°05' W 080°11'0 0.0
2017-Oct-03 07:45N 26°05' W 080°11'0 0.0
2017-Oct-03 07:27N 26°05' W 080°11'0 0.0
2017-Oct-03 07:00N 26°05' W 080°11'0 0.0
2017-Oct-03 06:30N 26°05' W 080°11'0 0.0
2017-Oct-03 06:00N 26°05' W 080°11'0 0.0
2017-Oct-03 05:30N 26°05' W 080°11'0 0.0
2017-Oct-03 05:00N 26°05' W 080°11'0 0.0
2017-Oct-03 04:15N 26°05' W 080°11'0 0.0
2017-Oct-03 03:51N 26°05' W 080°11'0 0.0
2017-Oct-03 03:03N 26°05' W 080°11'0 0.1
2017-Oct-03 02:54N 26°05' W 080°11'0 0.0
2017-Oct-03 02:21N 26°05' W 080°11'0 0.0
2017-Oct-03 01:48N 26°05' W 080°11'0 0.0
2017-Oct-03 01:24N 26°05' W 080°11'0 0.0
2017-Oct-03 00:54N 26°05' W 080°11'0 0.0
2017-Oct-03 00:24N 26°05' W 080°11'0 0.0
2017-Oct-02 23:57N 26°05' W 080°11'0 0.0
2017-Oct-02 23:27N 26°05' W 080°11'0 0.0
2017-Oct-02 22:57N 26°05' W 080°11'0 0.0
2017-Oct-02 22:27N 26°05' W 080°11'0 0.0
2017-Oct-02 21:54N 26°05' W 080°11'0 0.0
2017-Oct-02 21:27N 26°05' W 080°11'0 0.0
2017-Oct-02 21:00N 26°05' W 080°11'0 0.0
2017-Oct-02 20:30N 26°05' W 080°11'0 0.0
2017-Oct-02 19:57N 26°05' W 080°11'0 0.0
2017-Oct-02 18:57N 26°05' W 080°11'0 0.0
2017-Oct-02 18:03N 26°05' W 080°11'0 0.0
2017-Oct-02 17:57N 26°05' W 080°11'0 0.0
2017-Oct-02 17:15N 26°05' W 080°11'0 0.0
2017-Oct-02 16:48N 26°05' W 080°11'0 0.0
2017-Oct-02 16:30N 26°05' W 080°11'0 0.0
2017-Oct-02 16:00N 26°05' W 080°11'0 0.0
2017-Oct-02 15:30N 26°05' W 080°11'0 0.0
2017-Oct-02 14:51N 26°05' W 080°11'0 0.0
2017-Oct-02 14:21N 26°05' W 080°11'0 0.0
2017-Oct-02 13:18N 26°05' W 080°11'0 0.0
2017-Oct-02 12:09N 26°05' W 080°11'0 0.0
2017-Oct-02 11:54N 26°05' W 080°11'0 0.0
2017-Oct-02 11:24N 26°05' W 080°11'0 0.0
2017-Oct-02 10:54N 26°05' W 080°11'0 0.0
2017-Oct-02 10:24N 26°05' W 080°11'0 0.0
2017-Oct-02 09:57N 26°05' W 080°11'0 0.0
2017-Oct-02 08:54N 26°05' W 080°11'0 0.0
2017-Oct-02 08:12N 26°05' W 080°11'0 0.0
2017-Oct-02 07:57N 26°05' W 080°11'0 0.0
2017-Oct-02 07:27N 26°05' W 080°11'0 0.0
2017-Oct-02 07:00N 26°05' W 080°11'0 0.0
2017-Oct-02 06:30N 26°05' W 080°11'0 0.0
2017-Oct-02 06:00N 26°05' W 080°11'0 0.0
2017-Oct-02 05:27N 26°05' W 080°11'0 0.0
2017-Oct-02 05:00N 26°05' W 080°11'0 0.0
2017-Oct-02 04:30N 26°05' W 080°11'0 0.0
2017-Oct-02 03:57N 26°05' W 080°11'0 0.0
2017-Oct-02 03:30N 26°05' W 080°11'0 0.0
2017-Oct-02 02:48N 26°05' W 080°11'0 0.0
2017-Oct-02 02:30N 26°05' W 080°11'0 0.0
2017-Oct-02 02:00N 26°05' W 080°11'0 0.0
2017-Oct-02 01:30N 26°05' W 080°11'0 0.0
2017-Oct-02 01:00N 26°05' W 080°11'0 0.0
2017-Oct-02 00:30N 26°05' W 080°11'0 0.0
2017-Oct-01 23:51N 26°05' W 080°11'0 0.0
2017-Oct-01 23:21N 26°05' W 080°11'0 0.0
2017-Oct-01 22:54N 26°05' W 080°11'0 0.0
2017-Oct-01 22:24N 26°05' W 080°11'0 0.0
2017-Oct-01 21:54N 26°05' W 080°11'0 0.0
2017-Oct-01 21:24N 26°05' W 080°11'0 0.0
2017-Oct-01 20:51N 26°05' W 080°11'0 0.0
2017-Oct-01 20:24N 26°05' W 080°11'0 0.0
2017-Oct-01 19:57N 26°05' W 080°11'0 0.0
2017-Oct-01 19:27N 26°05' W 080°11'0 0.0
2017-Oct-01 18:57N 26°05' W 080°11'0 0.0
2017-Oct-01 18:24N 26°05' W 080°11'0 0.0
2017-Oct-01 17:57N 26°05' W 080°11'0 0.0
2017-Oct-01 17:27N 26°05' W 080°11'0 0.1
2017-Oct-01 16:54N 26°05' W 080°11'0 0.1
2017-Oct-01 16:30N 26°05' W 080°11'0 0.0
2017-Oct-01 16:00N 26°05' W 080°11'0 0.0
2017-Oct-01 15:30N 26°05' W 080°11'0 0.0
2017-Oct-01 15:00N 26°05' W 080°11'0 0.0
2017-Oct-01 14:30N 26°05' W 080°11'0 0.0
2017-Oct-01 14:00N 26°05' W 080°11'0 0.0
2017-Oct-01 13:30N 26°05' W 080°11'0 0.0
2017-Oct-01 13:00N 26°05' W 080°11'0 0.0
2017-Oct-01 12:30N 26°05' W 080°11'0 0.0
2017-Oct-01 12:00N 26°05' W 080°11'0 0.0
2017-Oct-01 11:30N 26°05' W 080°11'0 0.0
2017-Oct-01 11:00N 26°05' W 080°11'0 0.0
2017-Oct-01 10:21N 26°05' W 080°11'0 0.0
2017-Oct-01 09:48N 26°05' W 080°11'0 0.0
2017-Oct-01 09:21N 26°05' W 080°11'0 0.0
2017-Oct-01 08:54N 26°05' W 080°11'0 0.0
2017-Oct-01 08:24N 26°05' W 080°11'0 0.0
2017-Oct-01 07:54N 26°05' W 080°11'0 0.0
2017-Oct-01 07:24N 26°05' W 080°11'0 0.0
2017-Oct-01 06:54N 26°05' W 080°11'0 0.0
2017-Oct-01 06:27N 26°05' W 080°11'0 0.0
2017-Oct-01 05:54N 26°05' W 080°11'0 0.0
2017-Oct-01 05:21N 26°05' W 080°11'0 0.0
2017-Oct-01 04:39N 26°05' W 080°11'0 0.1
2017-Oct-01 04:27N 26°05' W 080°11'0 0.0
2017-Oct-01 03:57N 26°05' W 080°11'0 0.0
2017-Oct-01 03:30N 26°05' W 080°11'0 0.0
2017-Oct-01 03:00N 26°05' W 080°11'  

Dump ship's entire track history